Latest Weather Observations for Mount Nowa Nowa

IDV60801

Issued at 10:02 am EST Thursday 30 July 2015 (issued every 30 minutes, with the page automatically refreshed every 10 minutes)

About weather observations | Map of weather stations | Latest weather observations for VIC | Other Formats
Station Details ID: 084144 Name: MOUNT NOWA NOWA Lat: -37.69 Lon: 148.09 Height: 350.0 m
Data from the previous 72 hours. | See also: Recent months at Mount Nowa Nowa
Date/Time
EST
Temp
°C
App
Temp
°C
Dew
Point
Rel
Hum
%
Delta-T
°C
Wind Press
QNH
hPa
Press
MSL
hPa
Rain
since 9 am
mm
Dir
 
Spd
km/h
Gust
km/h
Spd
kts
Gust
kts
30/10:00am 9.1 5.3 2.0 61 3.0 NW 11 20 6 11 - - 0.0
30/09:30am 7.7 3.8 1.3 64 2.6 NNW 11 20 6 11 - - 0.0
30/09:00am 7.1 2.4 1.0 65 2.5 NNW 15 20 8 11 - - 0.0
30/08:30am 6.9 2.6 0.8 65 2.5 NW 13 22 7 12 - - 0.0
30/08:00am 6.3 1.6 0.6 67 2.3 NW 15 24 8 13 - - 0.0
30/07:30am 6.0 0.9 1.0 70 2.0 NW 17 30 9 16 - - 0.0
30/07:00am 6.3 1.6 0.8 68 2.2 NW 15 24 8 13 - - 0.0
30/06:30am 6.5 2.6 1.0 68 2.2 NW 11 19 6 10 - - 0.0
30/06:00am 6.6 3.1 1.1 68 2.2 NW 9 13 5 7 - - 0.0
30/05:30am 6.6 3.1 1.5 70 2.1 NW 9 13 5 7 - - 0.0
30/05:00am 6.5 3.1 1.6 71 2.0 NW 9 11 5 6 - - 0.0
30/04:30am 6.7 3.8 1.6 70 2.1 WNW 6 7 3 4 - - 0.0
30/04:00am 6.7 4.2 1.8 71 2.0 WNW 4 9 2 5 - - 0.0
30/03:30am 7.1 4.6 1.8 69 2.2 WNW 4 6 2 3 - - 0.0
30/03:00am 6.9 4.5 2.2 72 2.0 WNW 4 6 2 3 - - 0.0
30/02:30am 6.6 3.9 2.5 75 1.7 WNW 6 9 3 5 - - 0.0
30/02:00am 6.6 3.9 2.7 76 1.7 WNW 6 7 3 4 - - 0.0
30/01:30am 6.6 3.4 2.9 77 1.6 NW 9 15 5 8 - - 0.0
30/01:00am 6.5 2.9 2.8 77 1.6 NW 11 17 6 9 - - 0.0
30/12:30am 6.9 4.0 2.8 75 1.7 NW 7 13 4 7 - - 0.0
30/12:00am 6.6 3.1 3.4 80 1.4 N 11 17 6 9 - - 0.0
 
Date/Time
EST
Temp
°C
App
Temp
°C
Dew
Point
Rel
Hum
%
Delta-T
°C
Wind Press
QNH
hPa
Press
MSL
hPa
Rain
since 9 am
mm
Dir
 
Spd
km/h
Gust
km/h
Spd
kts
Gust
kts
29/11:30pm 6.7 4.1 3.3 79 1.5 N 6 9 3 5 - - 0.0
29/11:00pm 6.9 4.8 3.7 80 1.4 N 4 6 2 3 - - 0.0
29/10:30pm 7.0 4.5 4.0 81 1.3 ENE 6 9 3 5 - - 0.0
29/10:00pm 7.0 4.0 4.1 82 1.3 E 9 15 5 8 - - 0.0
29/09:30pm 6.8 4.1 3.6 80 1.4 ENE 7 13 4 7 - - 0.0
29/09:00pm 6.8 3.6 3.2 78 1.5 E 9 15 5 8 - - 0.0
29/08:30pm 6.8 4.0 2.9 76 1.7 E 7 13 4 7 - - 0.0
29/08:00pm 6.8 3.9 2.7 75 1.7 E 7 11 4 6 - - 0.0
29/07:30pm 6.4 3.3 3.4 81 1.3 E 9 17 5 9 - - 0.0
29/07:00pm 6.3 3.2 3.6 83 1.2 E 9 15 5 8 - - 0.0
29/06:30pm 6.3 3.7 4.0 85 1.0 E 7 15 4 8 - - 0.0
29/06:00pm 6.2 3.7 3.7 84 1.1 E 6 11 3 6 - - 0.0
29/05:30pm 6.4 3.9 3.9 84 1.1 E 6 9 3 5 - - 0.0
29/05:00pm 6.9 4.3 4.0 82 1.3 E 7 13 4 7 - - 0.0
29/04:30pm 7.8 5.8 4.2 78 1.6 ESE 4 6 2 3 - - 0.0
29/04:00pm 8.4 6.4 4.2 75 1.9 ESE 4 9 2 5 - - 0.0
29/03:30pm 8.9 6.4 3.9 71 2.2 SE 6 15 3 8 - - 0.0
29/03:00pm 9.2 6.4 3.4 67 2.6 SE 7 13 4 7 - - 0.0
29/02:30pm 10.1 7.5 4.0 66 2.7 SSE 7 15 4 8 - - 0.0
29/02:00pm 12.0 10.1 4.7 61 3.4 SSE 4 7 2 4 - - 0.0
29/01:30pm 12.4 10.8 4.4 58 3.7 ENE 2 6 1 3 - - 0.0
29/01:00pm 11.8 9.9 5.0 63 3.2 SE 4 6 2 3 - - 0.0
29/12:30pm 11.2 9.6 4.4 63 3.1 E 2 7 1 4 - - 0.0
29/12:00pm 11.6 10.0 4.6 62 3.2 SSE 2 6 1 3 - - 0.0
29/11:30am 11.4 10.3 5.3 66 2.9 CALM 0 4 0 2 - - 0.0
29/11:00am 10.0 8.1 4.8 70 2.4 NW 4 7 2 4 - - 0.0
29/10:30am 8.8 6.4 4.2 73 2.1 NW 6 11 3 6 - - 0.0
29/10:00am 7.5 4.4 3.6 76 1.7 NNW 9 15 5 8 - - 0.0
29/09:30am 7.0 4.2 3.1 76 1.7 NNW 7 13 4 7 - - 0.0
29/09:00am 6.5 3.3 2.9 78 1.5 N 9 17 5 9 - - 0.0
29/08:30am 6.1 2.5 2.7 79 1.4 N 11 19 6 10 - - 0.0
29/08:00am 5.5 1.5 2.8 83 1.1 N 13 20 7 11 - - 0.0
29/07:30am 5.0 1.0 2.9 86 0.9 N 13 17 7 9 - - 0.0
29/07:00am 4.9 0.9 2.9 87 0.8 NNW 13 20 7 11 - - 0.0
29/06:30am 4.8 0.8 3.0 88 0.8 NNW 13 19 7 10 - - 0.0
29/06:00am 5.1 0.8 3.1 87 0.8 N 15 22 8 12 - - 0.0
29/05:30am 5.3 1.0 3.3 87 0.8 NNW 15 24 8 13 - - 0.0
29/05:00am 5.8 1.9 3.6 86 0.9 NNW 13 20 7 11 - - 0.0
29/04:30am 5.9 2.4 3.7 86 0.9 N 11 19 6 10 - - 0.0
29/04:00am 6.2 3.2 3.9 85 1.0 NNW 9 17 5 9 - - 0.0
29/03:30am 6.3 3.2 3.8 84 1.1 NNW 9 15 5 8 - - 0.0
29/03:00am 6.1 3.0 3.8 85 1.0 NNW 9 15 5 8 - - 0.0
29/02:30am 6.2 3.2 3.9 85 1.0 NNW 9 15 5 8 - - 0.0
29/02:00am 6.5 3.5 4.0 84 1.1 NW 9 17 5 9 - - 0.0
29/01:30am 6.4 3.4 4.1 85 1.0 NW 9 13 5 7 - - 0.0
29/01:00am 5.8 3.3 4.0 88 0.8 WNW 6 9 3 5 - - 0.0
29/12:30am 5.6 3.0 4.1 90 0.7 W 7 11 4 6 - - 0.0
29/12:00am 5.7 3.1 4.2 90 0.7 W 7 11 4 6 - - 0.0
 
Date/Time
EST
Temp
°C
App
Temp
°C
Dew
Point
Rel
Hum
%
Delta-T
°C
Wind Press
QNH
hPa
Press
MSL
hPa
Rain
since 9 am
mm
Dir
 
Spd
km/h
Gust
km/h
Spd
kts
Gust
kts
28/11:30pm 5.7 3.1 4.2 90 0.7 W 7 9 4 5 - - 0.0
28/11:00pm 5.9 2.9 4.2 89 0.7 W 9 13 5 7 - - 0.0
28/10:30pm 6.2 3.6 4.0 86 1.0 W 7 13 4 7 - - 0.0
28/10:00pm 6.6 4.0 4.3 85 1.0 W 7 11 4 6 - - 0.0
28/09:30pm 6.8 3.8 4.3 84 1.1 W 9 13 5 7 - - 0.0
28/09:00pm 7.0 4.0 4.3 83 1.2 W 9 13 5 7 - - 0.0
28/08:30pm 7.4 4.5 4.4 81 1.3 W 9 15 5 8 - - 0.0
28/08:00pm 7.7 4.8 4.7 81 1.3 W 9 15 5 8 - - 0.0
28/07:30pm 7.8 5.3 4.9 82 1.3 W 7 11 4 6 - - 0.0
28/07:00pm 7.9 5.5 5.2 83 1.2 W 7 13 4 7 - - 0.0
28/06:30pm 8.2 5.8 5.3 82 1.3 W 7 13 4 7 - - 0.0
28/06:00pm 8.6 6.2 5.4 80 1.5 W 7 15 4 8 - - 0.0
28/05:30pm 8.8 6.0 5.2 78 1.6 WSW 9 20 5 11 - - 0.0
28/05:00pm 9.3 7.0 5.5 77 1.8 W 7 17 4 9 - - 0.0
28/04:30pm 9.6 6.9 5.6 76 1.9 WSW 9 20 5 11 - - 0.0
28/04:00pm 9.8 6.7 5.6 75 2.0 W 11 20 6 11 - - 0.0
28/03:30pm 10.3 7.2 5.7 73 2.2 W 11 22 6 12 - - 0.0
28/03:00pm 10.6 8.0 6.2 74 2.1 W 9 19 5 10 - - 0.0
28/02:30pm 10.7 8.0 5.7 71 2.4 WSW 9 22 5 12 - - 0.0
28/02:00pm 10.9 8.6 5.7 70 2.5 W 7 22 4 12 - - 0.0
28/01:30pm 10.6 7.5 5.4 70 2.4 WSW 11 22 6 12 - - 0.0
28/01:00pm 12.1 7.9 5.9 66 3.0 W 17 33 9 18 - - 0.0
28/12:30pm 11.1 8.2 6.3 72 2.3 W 11 24 6 13 - - 0.0
28/12:00pm 10.1 6.2 5.5 73 2.1 W 15 32 8 17 - - 0.0
28/11:30am 9.6 6.5 5.4 75 1.9 W 11 32 6 17 - - 0.0
28/11:00am 9.1 6.5 6.0 81 1.4 W 9 19 5 10 - - 0.0
28/10:30am 8.8 5.4 5.9 82 1.3 W 13 30 7 16 - - 0.0
28/10:00am 8.8 5.8 5.9 82 1.3 W 11 28 6 15 - - 0.0
28/09:30am 8.6 6.0 5.9 83 1.3 W 9 20 5 11 - - 0.0
28/09:00am 8.4 5.3 5.5 82 1.3 W 11 20 6 11 - - 0.2
28/08:30am 8.0 4.8 5.1 82 1.3 W 11 20 6 11 - - 0.2
28/08:00am 8.0 4.8 5.1 82 1.3 W 11 20 6 11 - - 0.2
28/07:30am 8.0 4.8 4.9 81 1.4 W 11 19 6 10 - - 0.2
28/07:00am 7.9 4.6 4.8 81 1.4 W 11 24 6 13 - - 0.2
28/06:30am 7.7 4.4 4.5 80 1.4 W 11 19 6 10 - - 0.2
28/06:00am 7.6 4.3 4.4 80 1.4 W 11 19 6 10 - - 0.2
28/05:30am 7.6 4.3 4.4 80 1.4 W 11 19 6 10 - - 0.2
28/05:00am 7.6 3.9 4.2 79 1.5 W 13 28 7 15 - - 0.2
28/04:30am 7.6 3.4 3.8 77 1.7 W 15 30 8 16 - - 0.2
28/04:00am 7.0 3.2 4.0 81 1.3 W 13 28 7 15 - - 0.2
28/03:30am 6.8 2.7 4.3 84 1.1 W 15 19 8 10 - - 0.2
28/03:00am 6.5 2.8 4.3 86 1.0 W 13 22 7 12 - - 0.2
28/02:30am 7.6 3.7 3.3 74 1.9 W 13 28 7 15 - - 0.0
28/02:00am 7.7 3.3 2.6 70 2.2 W 15 30 8 16 - - 0.0
28/01:30am 7.6 3.9 2.1 68 2.3 W 11 17 6 9 - - 0.0
28/01:00am 7.7 4.0 2.2 68 2.3 WNW 11 19 6 10 - - 0.0
28/12:30am 7.5 3.4 2.4 70 2.2 W 13 22 7 12 - - 0.0
28/12:00am 7.6 3.5 2.1 68 2.3 W 13 20 7 11 - - 0.0
 
Date/Time
EST
Temp
°C
App
Temp
°C
Dew
Point
Rel
Hum
%
Delta-T
°C
Wind Press
QNH
hPa
Press
MSL
hPa
Rain
since 9 am
mm
Dir
 
Spd
km/h
Gust
km/h
Spd
kts
Gust
kts
27/11:30pm 7.5 3.4 2.2 69 2.2 W 13 26 7 14 - - 0.0
27/11:00pm 7.3 2.8 2.2 70 2.1 W 15 26 8 14 - - 0.0
27/10:30pm 7.3 2.8 2.4 71 2.1 W 15 26 8 14 - - 0.0
27/10:00pm 7.2 3.1 2.3 71 2.1 W 13 24 7 13 - - 0.0
27/09:30pm 7.3 2.5 2.4 71 2.1 W 17 33 9 18 - - 0.0
27/09:00pm 7.3 2.9 2.6 72 2.0 W 15 28 8 15 - - 0.0
27/08:30pm 7.6 3.2 2.7 71 2.1 W 15 32 8 17 - - 0.0
27/08:00pm 7.7 3.0 3.0 72 2.0 W 17 32 9 17 - - 0.0
27/07:30pm 7.5 2.4 3.0 73 1.9 W 19 33 10 18 - - 0.0
27/07:00pm 7.4 2.3 2.9 73 1.9 W 19 37 10 20 - - 0.0
27/06:30pm 7.5 2.2 2.8 72 2.0 W 20 39 11 21 - - 0.0
27/06:00pm 7.8 2.7 2.9 71 2.1 W 19 37 10 20 - - 0.0
27/05:30pm 8.0 2.7 3.1 71 2.1 W 20 44 11 24 - - 0.0
27/05:00pm 8.2 2.9 2.9 69 2.3 W 20 44 11 24 - - 0.0
27/04:30pm 8.5 4.2 3.4 70 2.2 WSW 15 30 8 16 - - 0.0
27/04:00pm 8.8 4.5 3.4 69 2.4 WSW 15 32 8 17 - - 0.0
27/03:30pm 10.0 5.7 3.5 64 2.9 W 15 33 8 18 - - 0.0
27/03:00pm 10.4 6.5 3.4 62 3.1 W 13 35 7 19 - - 0.0
27/02:30pm 10.3 6.3 3.1 61 3.2 W 13 33 7 18 - - 0.0
27/02:00pm 9.1 3.9 2.7 64 2.8 W 19 39 10 21 - - 0.0
27/01:30pm 9.5 4.7 2.8 63 2.9 WSW 17 44 9 24 - - 0.0
27/01:00pm 9.7 4.6 2.8 62 3.0 W 19 37 10 20 - - 0.0
27/12:30pm 8.9 4.2 3.1 67 2.5 W 17 30 9 16 - - 0.0
27/12:00pm 8.1 3.7 2.6 68 2.4 W 15 32 8 17 - - 0.0
27/11:30am 8.4 3.6 2.6 67 2.5 W 17 35 9 19 - - 0.0
27/11:00am 7.5 2.7 2.4 70 2.2 W 17 33 9 18 - - 0.0
27/10:30am 6.8 1.3 2.1 72 2.0 WSW 20 39 11 21 - - 0.0

Other Formats:

Comma delimited format used in spreadsheet applications
http://www.bom.gov.au/fwo/IDV60801/IDV60801.94930.axf

JavaScript Object Notation format (JSON) in row-major order
http://www.bom.gov.au/fwo/IDV60801/IDV60801.94930.json